createdAt,value
2018-08-28T00:01:17.040Z,98.90
2018-08-28T00:03:45.383Z,99.00
2018-08-28T00:06:13.724Z,99.00
2018-08-28T00:08:42.083Z,99.10
2018-08-28T00:11:10.404Z,99.10
2018-08-28T00:13:38.768Z,99.20
2018-08-28T00:16:07.143Z,99.20
2018-08-28T00:18:35.545Z,99.10
2018-08-28T00:21:03.852Z,99.20
2018-08-28T00:23:32.234Z,99.20
2018-08-28T00:26:00.548Z,99.40
2018-08-28T00:28:28.900Z,99.60
2018-08-28T00:30:57.203Z,99.80
2018-08-28T00:33:25.552Z,99.90
2018-08-28T00:35:53.884Z,99.90
2018-08-28T00:38:22.236Z,99.90
2018-08-28T00:40:50.543Z,99.90
2018-08-28T00:43:18.912Z,99.90
2018-08-28T00:45:47.236Z,99.90
2018-08-28T00:48:15.703Z,99.90
2018-08-28T00:50:44.020Z,99.90
2018-08-28T00:53:12.478Z,99.90
2018-08-28T00:55:40.788Z,99.90
2018-08-28T00:58:09.153Z,99.90
2018-08-28T01:00:37.464Z,99.90
2018-08-28T01:03:05.835Z,99.90
2018-08-28T01:05:34.160Z,99.90
2018-08-28T01:08:02.574Z,99.90
2018-08-28T01:10:30.892Z,99.90
2018-08-28T01:12:59.245Z,99.90
2018-08-28T01:15:27.560Z,99.90
2018-08-28T01:17:55.935Z,99.90
2018-08-28T01:20:24.263Z,99.90
2018-08-28T01:22:52.608Z,99.90
2018-08-28T01:25:20.927Z,99.90
2018-08-28T01:27:49.275Z,99.90
2018-08-28T01:30:21.812Z,99.90
2018-08-28T01:32:50.147Z,99.90
2018-08-28T01:35:18.468Z,99.90
2018-08-28T01:37:46.779Z,99.90
2018-08-28T01:40:15.135Z,99.90
2018-08-28T01:42:43.448Z,99.90
2018-08-28T01:45:11.792Z,99.90
2018-08-28T01:47:40.107Z,99.90
2018-08-28T01:50:08.444Z,99.90
2018-08-28T01:52:36.755Z,99.90
2018-08-28T01:55:05.099Z,99.90
2018-08-28T01:57:33.428Z,99.90
2018-08-28T02:00:01.773Z,99.90
2018-08-28T02:02:30.093Z,99.90
2018-08-28T02:04:58.447Z,99.90
2018-08-28T02:07:26.769Z,99.90
2018-08-28T02:09:55.104Z,99.90
2018-08-28T02:12:23.441Z,99.90
2018-08-28T02:14:51.790Z,99.90
2018-08-28T02:17:20.104Z,99.90
2018-08-28T02:19:48.528Z,99.90
2018-08-28T02:22:16.837Z,99.90
2018-08-28T02:24:45.184Z,99.90
2018-08-28T02:27:13.488Z,99.90
2018-08-28T02:29:41.835Z,99.90
2018-08-28T02:32:10.152Z,99.90
2018-08-28T02:34:38.489Z,99.90
2018-08-28T02:37:06.802Z,99.90
2018-08-28T02:39:35.148Z,99.90
2018-08-28T02:42:03.464Z,99.90
2018-08-28T02:44:31.812Z,99.90
2018-08-28T02:47:00.123Z,99.90
2018-08-28T02:49:28.467Z,99.90
2018-08-28T02:51:56.768Z,99.90
2018-08-28T02:54:25.107Z,99.90
2018-08-28T02:56:53.419Z,99.90
2018-08-28T02:59:21.758Z,99.90
2018-08-28T03:01:50.080Z,99.90
2018-08-28T03:04:18.417Z,99.90
2018-08-28T03:06:46.740Z,99.90
2018-08-28T03:09:15.097Z,99.90
2018-08-28T03:11:43.458Z,99.90
2018-08-28T03:14:11.997Z,99.90
2018-08-28T03:16:40.348Z,99.90
2018-08-28T03:19:08.704Z,99.90
2018-08-28T03:21:37.060Z,99.90
2018-08-28T03:24:05.396Z,99.90
2018-08-28T03:26:33.768Z,99.90
2018-08-28T03:29:02.115Z,99.90
2018-08-28T03:31:30.457Z,99.90
2018-08-28T03:33:58.773Z,99.90
2018-08-28T03:36:27.111Z,99.90
2018-08-28T03:38:55.436Z,99.90
2018-08-28T03:41:23.784Z,99.90
2018-08-28T03:43:52.086Z,99.90
2018-08-28T03:46:20.433Z,99.90
2018-08-28T03:48:48.740Z,99.90
2018-08-28T03:51:17.091Z,99.90
2018-08-28T03:53:45.405Z,99.90
2018-08-28T03:56:13.747Z,99.90
2018-08-28T03:58:42.065Z,99.90
2018-08-28T04:01:10.416Z,99.90
2018-08-28T04:03:38.787Z,99.90
2018-08-28T04:06:07.340Z,99.90
2018-08-28T04:08:35.654Z,99.90
2018-08-28T04:11:04.031Z,99.90
2018-08-28T04:13:32.343Z,99.90
2018-08-28T04:16:00.783Z,99.90
2018-08-28T04:18:29.144Z,99.90
2018-08-28T04:20:57.525Z,99.90
2018-08-28T04:23:25.972Z,99.90
2018-08-28T04:25:54.353Z,99.90
2018-08-28T04:28:22.664Z,99.90
2018-08-28T04:30:51.062Z,99.90
2018-08-28T04:33:19.368Z,99.90
2018-08-28T04:35:47.725Z,99.90
2018-08-28T04:38:16.067Z,99.90
2018-08-28T04:40:44.452Z,99.90
2018-08-28T04:43:12.791Z,99.90
2018-08-28T04:45:41.179Z,99.90
2018-08-28T04:48:09.771Z,99.90
2018-08-28T04:50:38.349Z,99.90
2018-08-28T04:53:06.956Z,99.90
2018-08-28T04:55:35.276Z,99.90
2018-08-28T04:58:03.760Z,99.90
2018-08-28T05:00:32.090Z,99.90
2018-08-28T05:03:00.465Z,99.90
2018-08-28T05:05:28.784Z,99.90
2018-08-28T05:07:57.148Z,99.90
2018-08-28T05:10:25.463Z,99.90
2018-08-28T05:12:53.812Z,99.90
2018-08-28T05:15:22.147Z,99.90
2018-08-28T05:17:50.537Z,99.90
2018-08-28T05:20:18.849Z,99.90
2018-08-28T05:22:47.192Z,99.90
2018-08-28T05:25:15.517Z,99.90
2018-08-28T05:27:43.875Z,99.90
2018-08-28T05:30:12.188Z,99.90
2018-08-28T05:32:40.539Z,99.90
2018-08-28T05:35:08.879Z,99.90
2018-08-28T05:37:37.227Z,99.90
2018-08-28T05:40:05.592Z,99.90
2018-08-28T05:42:33.946Z,99.90
2018-08-28T05:45:02.269Z,99.90
2018-08-28T05:47:30.608Z,99.90
2018-08-28T05:49:58.925Z,99.90
2018-08-28T05:52:27.266Z,99.90
2018-08-28T05:54:55.849Z,99.90
2018-08-28T05:57:24.204Z,99.90
2018-08-28T05:59:52.512Z,99.90
2018-08-28T06:02:20.864Z,99.90
2018-08-28T06:04:49.192Z,99.90
2018-08-28T06:07:17.548Z,99.90
2018-08-28T06:09:45.855Z,99.90
2018-08-28T06:12:14.211Z,99.90
2018-08-28T06:14:42.534Z,99.90
2018-08-28T06:17:10.895Z,99.90
2018-08-28T06:19:39.249Z,99.90
2018-08-28T06:22:07.623Z,99.90
2018-08-28T06:24:35.948Z,99.90
2018-08-28T06:27:04.356Z,99.90
2018-08-28T06:29:32.675Z,99.90
2018-08-28T06:32:01.049Z,99.90
2018-08-28T06:34:29.420Z,99.90
2018-08-28T06:36:57.737Z,99.90
2018-08-28T06:39:26.105Z,99.90
2018-08-28T06:41:54.432Z,99.90
2018-08-28T06:44:22.801Z,99.90
2018-08-28T06:46:51.116Z,99.90
2018-08-28T06:49:19.480Z,99.90
2018-08-28T06:51:47.844Z,99.90
2018-08-28T06:54:16.790Z,99.90
2018-08-28T06:56:45.150Z,99.90
2018-08-28T06:59:13.515Z,99.90
2018-08-28T07:01:41.859Z,99.90
2018-08-28T07:04:10.220Z,99.90
2018-08-28T07:06:38.572Z,99.90
2018-08-28T07:09:07.427Z,99.90
2018-08-28T07:11:36.012Z,99.90
2018-08-28T07:14:04.468Z,99.90
2018-08-28T07:16:32.783Z,99.50
2018-08-28T07:19:01.169Z,99.10
2018-08-28T07:21:29.488Z,99.10
2018-08-28T07:23:58.043Z,98.50
2018-08-28T07:26:26.588Z,98.60
2018-08-28T07:28:54.935Z,97.40
2018-08-28T07:31:23.325Z,96.50
2018-08-28T07:33:51.611Z,96.10
2018-08-28T07:36:20.116Z,96.50
2018-08-28T07:38:48.490Z,96.50
2018-08-28T07:41:16.803Z,95.90
2018-08-28T07:43:45.147Z,95.20
2018-08-28T07:46:13.463Z,93.80
2018-08-28T07:48:41.805Z,93.30
2018-08-28T07:51:10.148Z,92.10
2018-08-28T07:53:38.704Z,91.30
2018-08-28T07:56:07.015Z,90.50
2018-08-28T07:58:35.401Z,88.10
2018-08-28T08:01:03.712Z,85.80
2018-08-28T08:03:32.060Z,83.10
2018-08-28T08:06:00.384Z,80.70
2018-08-28T08:08:28.732Z,78.80
2018-08-28T08:10:57.057Z,79.60
2018-08-28T08:13:25.399Z,79.10
2018-08-28T08:15:53.720Z,78.50
2018-08-28T08:18:22.134Z,79.30
2018-08-28T08:20:50.447Z,80.00
2018-08-28T08:23:18.825Z,78.30
2018-08-28T08:25:47.135Z,77.90
2018-08-28T08:28:15.622Z,77.70
2018-08-28T08:30:43.813Z,76.70
2018-08-28T08:33:12.136Z,75.70
2018-08-28T08:35:40.494Z,75.90
2018-08-28T08:38:08.908Z,75.70
2018-08-28T08:40:37.247Z,75.80
2018-08-28T08:43:05.560Z,76.50
2018-08-28T08:45:33.911Z,76.30
2018-08-28T08:48:02.233Z,74.00
2018-08-28T08:50:30.575Z,75.20
2018-08-28T08:52:58.900Z,72.40
2018-08-28T08:55:27.242Z,73.70
2018-08-28T08:57:55.556Z,72.90
2018-08-28T09:00:23.904Z,73.60
2018-08-28T09:02:52.219Z,72.90
2018-08-28T09:05:20.572Z,73.60
2018-08-28T09:07:49.144Z,72.40
2018-08-28T09:10:17.492Z,71.50
2018-08-28T09:12:45.809Z,72.00
2018-08-28T09:15:14.170Z,70.50
2018-08-28T09:17:42.500Z,69.20
2018-08-28T09:20:10.872Z,68.90
2018-08-28T09:22:39.215Z,70.00
2018-08-28T09:25:07.568Z,69.30
2018-08-28T09:27:35.880Z,69.60
2018-08-28T09:30:04.520Z,70.40
2018-08-28T09:32:32.828Z,70.20
2018-08-28T09:35:01.196Z,71.20
2018-08-28T09:37:29.524Z,69.20
2018-08-28T09:39:57.869Z,67.70
2018-08-28T09:42:26.189Z,67.90
2018-08-28T09:44:54.540Z,67.90
2018-08-28T09:47:22.857Z,68.00
2018-08-28T09:49:51.221Z,68.50
2018-08-28T09:52:19.533Z,68.50
2018-08-28T09:54:47.875Z,68.80
2018-08-28T09:57:16.179Z,70.00
2018-08-28T09:59:44.532Z,68.10
2018-08-28T10:02:12.864Z,66.70
2018-08-28T10:04:41.252Z,66.60
2018-08-28T10:07:09.553Z,66.50
2018-08-28T10:09:37.908Z,67.10
2018-08-28T10:12:06.370Z,66.90
2018-08-28T10:14:34.688Z,66.80
2018-08-28T10:17:03.041Z,66.70
2018-08-28T10:19:31.384Z,65.00
2018-08-28T10:21:59.728Z,65.20
2018-08-28T10:24:28.044Z,64.40
2018-08-28T10:26:56.512Z,65.10
2018-08-28T10:29:24.828Z,65.00
2018-08-28T10:31:53.270Z,64.40
2018-08-28T10:34:21.591Z,65.30
2018-08-28T10:36:49.931Z,64.90
2018-08-28T10:39:18.252Z,63.50
2018-08-28T10:41:46.601Z,63.70
2018-08-28T10:44:14.916Z,63.00
2018-08-28T10:46:43.374Z,63.80
2018-08-28T10:49:11.601Z,62.90
2018-08-28T10:51:39.980Z,62.30
2018-08-28T10:54:08.283Z,62.80
2018-08-28T10:56:36.628Z,61.70
2018-08-28T10:59:04.984Z,61.80
2018-08-28T11:01:33.340Z,61.50
2018-08-28T11:04:01.656Z,61.50
2018-08-28T11:06:30.026Z,61.20
2018-08-28T11:08:58.349Z,62.60
2018-08-28T11:11:26.713Z,63.60
2018-08-28T11:13:55.032Z,62.70
2018-08-28T11:16:23.397Z,61.20
2018-08-28T11:18:51.787Z,62.20
2018-08-28T11:21:20.132Z,60.20
2018-08-28T11:23:48.448Z,59.40
2018-08-28T11:26:16.796Z,59.20
2018-08-28T11:28:45.236Z,58.90
2018-08-28T11:31:13.639Z,59.70
2018-08-28T11:33:41.932Z,59.50
2018-08-28T11:36:10.312Z,59.80
2018-08-28T11:38:38.630Z,59.40
2018-08-28T11:41:07.004Z,59.20
2018-08-28T11:43:35.332Z,59.00
2018-08-28T11:46:03.741Z,59.50
2018-08-28T11:48:32.068Z,58.70
2018-08-28T11:51:00.421Z,58.50
2018-08-28T11:53:28.733Z,58.50
2018-08-28T11:55:57.089Z,59.10
2018-08-28T11:58:25.420Z,58.70
2018-08-28T12:00:53.777Z,58.90
2018-08-28T12:03:22.100Z,58.20
2018-08-28T12:05:50.428Z,59.10
2018-08-28T12:08:18.765Z,58.00
2018-08-28T12:10:47.092Z,57.30
2018-08-28T12:13:15.509Z,57.30
2018-08-28T12:15:43.775Z,57.80
2018-08-28T12:18:12.198Z,57.70
2018-08-28T12:20:40.577Z,57.20
2018-08-28T12:23:08.912Z,56.70
2018-08-28T12:25:37.233Z,57.10
2018-08-28T12:28:05.735Z,57.20
2018-08-28T12:30:34.061Z,56.70
2018-08-28T12:33:02.408Z,56.60
2018-08-28T12:35:30.745Z,56.60
2018-08-28T12:37:59.108Z,56.50
2018-08-28T12:40:27.487Z,57.30
2018-08-28T12:42:55.848Z,56.90
2018-08-28T12:45:24.198Z,56.30
2018-08-28T12:47:52.561Z,56.60
2018-08-28T12:50:20.893Z,56.30
2018-08-28T12:52:49.245Z,56.80
2018-08-28T12:55:17.576Z,57.00
2018-08-28T12:57:45.932Z,56.50
2018-08-28T13:00:14.263Z,56.20
2018-08-28T13:02:42.715Z,56.20
2018-08-28T13:05:11.040Z,56.10
2018-08-28T13:07:39.401Z,56.00
2018-08-28T13:10:07.752Z,56.50
2018-08-28T13:12:36.122Z,56.80
2018-08-28T13:15:04.481Z,56.80
2018-08-28T13:17:32.855Z,56.40
2018-08-28T13:20:01.205Z,56.20
2018-08-28T13:22:29.553Z,56.50
2018-08-28T13:24:57.924Z,56.70
2018-08-28T13:27:26.411Z,55.80
2018-08-28T13:29:54.881Z,55.70
2018-08-28T13:32:23.244Z,57.30
2018-08-28T13:34:51.578Z,57.30
2018-08-28T13:37:19.937Z,55.20
2018-08-28T13:39:48.272Z,55.40
2018-08-28T13:42:16.643Z,54.90
2018-08-28T13:44:44.963Z,56.30
2018-08-28T13:47:13.431Z,55.50
2018-08-28T13:49:41.692Z,54.90
2018-08-28T13:52:10.126Z,54.90
2018-08-28T13:54:38.464Z,55.30
2018-08-28T13:57:07.060Z,54.50
2018-08-28T13:59:35.449Z,54.20
2018-08-28T14:02:04.013Z,54.30
2018-08-28T14:04:32.372Z,54.10
2018-08-28T14:07:00.712Z,53.90
2018-08-28T14:09:29.080Z,54.40
2018-08-28T14:11:57.449Z,54.00
2018-08-28T14:14:25.779Z,54.30
2018-08-28T14:16:54.139Z,53.80
2018-08-28T14:19:22.496Z,54.00
2018-08-28T14:21:50.845Z,53.50
2018-08-28T14:24:19.220Z,53.80
2018-08-28T14:26:47.560Z,53.50
2018-08-28T14:29:16.022Z,53.70
2018-08-28T14:31:44.264Z,53.10
2018-08-28T14:34:12.607Z,53.20
2018-08-28T14:36:40.920Z,53.20
2018-08-28T14:39:09.312Z,52.80
2018-08-28T14:41:37.924Z,53.00
2018-08-28T14:44:06.424Z,53.20
2018-08-28T14:46:34.748Z,52.90
2018-08-28T14:49:03.212Z,53.20
2018-08-28T14:51:31.542Z,53.70
2018-08-28T14:53:59.904Z,52.80
2018-08-28T14:56:28.332Z,52.50
2018-08-28T14:58:57.081Z,52.50
2018-08-28T15:01:25.407Z,53.20
2018-08-28T15:03:53.783Z,52.50
2018-08-28T15:06:22.291Z,52.90
2018-08-28T15:08:50.639Z,54.50
2018-08-28T15:11:18.964Z,53.50
2018-08-28T15:13:47.773Z,52.60
2018-08-28T15:16:16.441Z,52.70
2018-08-28T15:18:44.818Z,53.40
2018-08-28T15:21:13.136Z,53.00
2018-08-28T15:23:41.488Z,52.10
2018-08-28T15:26:10.039Z,51.70
2018-08-28T15:28:38.675Z,51.80
2018-08-28T15:31:07.091Z,50.60
2018-08-28T15:33:35.631Z,50.70
2018-08-28T15:36:03.985Z,50.90
2018-08-28T15:38:32.336Z,52.30
2018-08-28T15:41:00.662Z,52.10
2018-08-28T15:43:29.021Z,52.10
2018-08-28T15:45:57.332Z,52.00
2018-08-28T15:48:25.709Z,51.90
2018-08-28T15:50:54.071Z,51.90
2018-08-28T15:53:22.412Z,52.00
2018-08-28T15:55:50.739Z,52.30
2018-08-28T15:58:19.088Z,52.00
2018-08-28T16:00:47.413Z,51.90
2018-08-28T16:03:15.768Z,51.50
2018-08-28T16:05:44.096Z,51.80
2018-08-28T16:08:12.457Z,51.90
2018-08-28T16:10:40.792Z,52.20
2018-08-28T16:13:09.157Z,52.60
2018-08-28T16:15:37.484Z,52.10
2018-08-28T16:18:05.893Z,51.90
2018-08-28T16:20:34.228Z,52.20
2018-08-28T16:23:05.103Z,52.20
2018-08-28T16:25:33.436Z,51.60
2018-08-28T16:28:01.828Z,51.90
2018-08-28T16:30:30.173Z,52.30
2018-08-28T16:32:58.524Z,52.50
2018-08-28T16:35:26.839Z,52.40
2018-08-28T16:37:55.187Z,52.80
2018-08-28T16:40:23.508Z,52.60
2018-08-28T16:42:51.861Z,52.50
2018-08-28T16:45:20.215Z,52.60
2018-08-28T16:47:48.600Z,52.60
2018-08-28T16:50:16.948Z,52.20
2018-08-28T16:52:45.300Z,52.50
2018-08-28T16:55:13.627Z,52.70
2018-08-28T16:57:41.979Z,52.50
2018-08-28T17:00:10.365Z,52.70
2018-08-28T17:02:38.684Z,52.60
2018-08-28T17:05:07.059Z,52.80
2018-08-28T17:07:35.412Z,52.40
2018-08-28T17:10:03.845Z,52.70
2018-08-28T17:12:32.168Z,52.90
2018-08-28T17:15:00.545Z,53.10
2018-08-28T17:17:28.892Z,53.50
2018-08-28T17:19:57.300Z,53.20
2018-08-28T17:22:25.655Z,53.10
2018-08-28T17:24:54.018Z,53.30
2018-08-28T17:27:22.343Z,53.00
2018-08-28T17:29:50.693Z,53.20
2018-08-28T17:32:19.012Z,53.60
2018-08-28T17:34:47.367Z,53.50
2018-08-28T17:37:15.761Z,53.60
2018-08-28T17:39:44.090Z,53.50
2018-08-28T17:42:12.400Z,53.80
2018-08-28T17:44:40.755Z,53.90
2018-08-28T17:47:09.084Z,53.90
2018-08-28T17:49:38.278Z,54.30
2018-08-28T17:52:06.629Z,54.20
2018-08-28T17:54:35.000Z,54.10
2018-08-28T17:57:03.347Z,54.40
2018-08-28T17:59:31.700Z,54.80
2018-08-28T18:02:00.016Z,55.00
2018-08-28T18:04:28.391Z,55.30
2018-08-28T18:06:56.739Z,55.40
2018-08-28T18:09:25.105Z,55.40
2018-08-28T18:11:53.428Z,55.90
2018-08-28T18:14:21.805Z,55.80
2018-08-28T18:16:50.124Z,55.90
2018-08-28T18:19:18.520Z,56.00
2018-08-28T18:21:46.869Z,55.70
2018-08-28T18:24:15.251Z,56.00
2018-08-28T18:26:43.584Z,56.00
2018-08-28T18:29:11.964Z,56.40
2018-08-28T18:31:40.296Z,56.50
2018-08-28T18:34:08.629Z,56.70
2018-08-28T18:36:37.080Z,56.70
2018-08-28T18:39:06.567Z,56.90
2018-08-28T18:41:34.974Z,57.20
2018-08-28T18:44:03.277Z,57.30
2018-08-28T18:46:31.648Z,57.50
2018-08-28T18:49:00.013Z,57.90
2018-08-28T18:51:28.378Z,58.40
2018-08-28T18:53:56.806Z,59.00
2018-08-28T18:56:25.182Z,59.90
2018-08-28T18:58:53.547Z,60.60
2018-08-28T19:01:21.972Z,60.80
2018-08-28T19:03:50.340Z,61.10
2018-08-28T19:06:18.704Z,61.60
2018-08-28T19:08:47.062Z,62.50
2018-08-28T19:11:15.556Z,63.00
2018-08-28T19:13:44.216Z,63.20
2018-08-28T19:16:12.593Z,63.70
2018-08-28T19:18:40.934Z,64.00
2018-08-28T19:21:09.307Z,63.50
2018-08-28T19:23:37.646Z,63.80
2018-08-28T19:26:06.035Z,63.90
2018-08-28T19:28:34.391Z,64.20
2018-08-28T19:31:02.779Z,66.00
2018-08-28T19:33:31.139Z,67.00
2018-08-28T19:35:59.504Z,66.80
2018-08-28T19:38:27.845Z,67.10
2018-08-28T19:40:56.291Z,66.20
2018-08-28T19:43:24.626Z,66.60
2018-08-28T19:45:52.992Z,67.20
2018-08-28T19:48:21.333Z,67.10
2018-08-28T19:50:49.702Z,67.40
2018-08-28T19:53:18.048Z,67.60
2018-08-28T19:55:46.386Z,68.20
2018-08-28T19:58:14.787Z,68.20
2018-08-28T20:00:43.088Z,68.30
2018-08-28T20:03:11.400Z,68.70
2018-08-28T20:05:39.761Z,68.90
2018-08-28T20:08:08.098Z,69.20
2018-08-28T20:10:36.451Z,69.40
2018-08-28T20:13:04.828Z,69.70
2018-08-28T20:15:33.177Z,69.80
2018-08-28T20:18:01.497Z,69.90
2018-08-28T20:20:29.850Z,70.40
2018-08-28T20:22:58.171Z,70.80
2018-08-28T20:25:35.959Z,70.90
2018-08-28T20:28:04.288Z,70.90
2018-08-28T20:30:32.639Z,71.00
2018-08-28T20:33:00.972Z,71.70
2018-08-28T20:35:29.317Z,72.40
2018-08-28T20:37:57.692Z,72.60
2018-08-28T20:40:26.013Z,72.90
2018-08-28T20:42:54.365Z,73.40
2018-08-28T20:45:22.713Z,73.70
2018-08-28T20:47:51.066Z,74.10
2018-08-28T20:50:19.380Z,74.10
2018-08-28T20:52:47.760Z,73.90
2018-08-28T20:55:16.089Z,73.80
2018-08-28T20:57:44.445Z,74.30
2018-08-28T21:00:12.775Z,74.70
2018-08-28T21:02:41.128Z,74.60
2018-08-28T21:05:09.471Z,74.40
2018-08-28T21:07:37.823Z,75.00
2018-08-28T21:10:06.157Z,75.40
2018-08-28T21:12:34.548Z,75.90
2018-08-28T21:15:02.889Z,75.90
2018-08-28T21:17:31.281Z,76.00
2018-08-28T21:19:59.591Z,76.00
2018-08-28T21:22:27.947Z,76.20
2018-08-28T21:24:56.280Z,76.50
2018-08-28T21:27:24.617Z,76.70
2018-08-28T21:29:52.929Z,76.80
2018-08-28T21:32:21.353Z,77.60
2018-08-28T21:34:49.693Z,77.90
2018-08-28T21:37:18.083Z,78.30
2018-08-28T21:39:46.457Z,78.60
2018-08-28T21:42:14.894Z,78.70
2018-08-28T21:44:43.152Z,78.40
2018-08-28T21:47:11.500Z,78.50
2018-08-28T21:49:39.883Z,78.90
2018-08-28T21:52:08.244Z,78.90
2018-08-28T21:54:37.564Z,79.30
2018-08-28T21:57:05.932Z,79.60
2018-08-28T21:59:34.252Z,79.70
2018-08-28T22:02:02.624Z,79.90
2018-08-28T22:04:30.999Z,80.40
2018-08-28T22:07:04.628Z,80.60
2018-08-28T22:09:32.976Z,80.70
2018-08-28T22:12:01.300Z,80.90
2018-08-28T22:14:29.652Z,80.80
2018-08-28T22:16:57.984Z,80.50
2018-08-28T22:19:26.355Z,80.60
2018-08-28T22:21:54.687Z,80.40
2018-08-28T22:24:23.031Z,80.30
2018-08-28T22:26:51.356Z,80.40
2018-08-28T22:29:19.705Z,80.00
2018-08-28T22:31:48.025Z,80.30
2018-08-28T22:34:16.364Z,80.40
2018-08-28T22:36:44.704Z,80.40
2018-08-28T22:39:13.055Z,80.40
2018-08-28T22:41:41.383Z,80.60
2018-08-28T22:44:09.720Z,81.00
2018-08-28T22:46:38.040Z,81.20
2018-08-28T22:49:06.440Z,82.50
2018-08-28T22:51:34.787Z,83.10
2018-08-28T22:54:03.261Z,83.20
2018-08-28T22:56:31.566Z,82.80
2018-08-28T22:58:59.928Z,82.90
2018-08-28T23:01:28.247Z,83.10
2018-08-28T23:03:56.624Z,83.30
2018-08-28T23:06:24.961Z,83.50
2018-08-28T23:08:53.313Z,83.70
2018-08-28T23:11:21.635Z,84.10
2018-08-28T23:13:49.988Z,84.60
2018-08-28T23:16:18.308Z,84.80
2018-08-28T23:18:46.662Z,85.10
2018-08-28T23:21:15.035Z,85.60
2018-08-28T23:23:43.347Z,86.10
2018-08-28T23:26:11.704Z,86.80
2018-08-28T23:28:40.015Z,86.90
2018-08-28T23:31:08.356Z,87.40
2018-08-28T23:33:36.663Z,87.70
2018-08-28T23:36:05.043Z,88.00
2018-08-28T23:38:33.357Z,88.40
2018-08-28T23:41:01.700Z,88.70
2018-08-28T23:43:30.056Z,89.20
2018-08-28T23:45:58.436Z,89.50
2018-08-28T23:48:26.748Z,89.90
2018-08-28T23:50:55.088Z,90.00
2018-08-28T23:53:23.426Z,90.20
2018-08-28T23:55:51.771Z,90.40
2018-08-28T23:58:20.097Z,90.60
